createdAt,value
2023-05-08T09:25:46.477Z,97025.13
2023-05-08T09:28:16.347Z,97020.53
2023-05-08T09:29:20.782Z,97027.97
2023-05-08T09:30:22.176Z,97014.97
2023-05-08T09:31:34.911Z,97021.47
2023-05-08T09:32:38.441Z,97026.72
2023-05-08T09:33:44.409Z,97024.38
2023-05-08T09:34:52.443Z,97032.22
2023-05-08T09:35:56.812Z,97024.66
2023-05-08T09:37:07.421Z,97029.34
2023-05-08T09:38:08.767Z,97030.88
2023-05-08T09:39:14.119Z,97029.25
2023-05-08T09:40:21.407Z,97035.94
2023-05-08T09:41:24.071Z,97020.31
2023-05-08T09:42:37.753Z,97030.72
2023-05-08T09:43:39.455Z,97034.31
2023-05-08T09:44:54.021Z,97032.34
2023-05-08T09:45:55.552Z,97033.00
2023-05-08T09:47:11.234Z,97039.38
2023-05-08T09:48:12.610Z,97035.91
2023-05-08T09:49:18.126Z,97035.16
2023-05-08T09:50:19.611Z,97035.03
2023-05-08T09:51:21.687Z,97027.03
2023-05-08T09:52:24.045Z,97036.91
2023-05-08T09:53:32.282Z,97034.16
2023-05-08T09:54:34.793Z,97033.66
2023-05-08T09:55:48.671Z,97031.13
2023-05-08T09:56:50.939Z,97033.53
2023-05-08T09:57:59.879Z,97018.22
2023-05-08T09:59:03.586Z,97037.59
2023-05-08T10:00:08.920Z,97038.72
2023-05-08T10:01:31.500Z,97036.56
2023-05-08T10:02:33.204Z,97033.72
2023-05-08T10:03:48.471Z,97036.94
2023-05-08T10:04:49.929Z,97033.91
2023-05-08T10:05:51.551Z,97041.66
2023-05-08T10:06:58.501Z,97037.38
2023-05-08T10:08:17.843Z,97036.88
2023-05-08T10:09:19.423Z,97035.28
2023-05-08T10:10:28.527Z,97030.78
2023-05-08T10:11:29.908Z,97033.63
2023-05-08T10:12:32.206Z,97031.94
2023-05-08T10:13:33.913Z,97032.78
2023-05-08T10:14:35.344Z,97035.13
2023-05-08T10:15:38.273Z,97033.84
2023-05-08T10:16:44.016Z,97040.53
2023-05-08T10:17:55.962Z,97042.81
2023-05-08T10:19:02.344Z,97038.19
2023-05-08T10:20:07.071Z,97047.84
2023-05-08T10:21:09.046Z,97035.66
2023-05-08T10:22:12.578Z,97042.50
2023-05-08T10:23:19.016Z,97035.00
2023-05-08T10:24:29.260Z,97031.81
2023-05-08T10:25:34.002Z,97037.28
2023-05-08T10:26:38.089Z,97039.38
2023-05-08T10:27:55.196Z,97030.81
2023-05-08T10:28:57.785Z,97047.47
2023-05-08T10:30:04.185Z,97043.59
2023-05-08T10:31:07.965Z,97041.25
2023-05-08T10:32:10.592Z,97036.53
2023-05-08T10:33:15.301Z,97041.03
2023-05-08T10:34:20.725Z,97036.97
2023-05-08T10:35:22.806Z,97033.69
2023-05-08T11:27:37.844Z,97022.94
2023-05-08T11:30:22.653Z,97023.47
2023-05-08T11:31:24.371Z,97019.53
2023-05-08T11:33:55.533Z,97020.34
2023-05-08T11:34:57.353Z,97021.50
2023-05-08T11:36:20.549Z,97019.13
2023-05-08T11:39:07.922Z,97016.50
2023-05-08T11:40:47.372Z,97006.22
2023-05-08T11:43:24.265Z,97010.28
2023-05-08T11:44:28.161Z,97015.56
2023-05-08T11:45:30.812Z,97014.09
2023-05-08T11:46:52.192Z,97017.56
2023-05-08T11:48:00.971Z,97010.94
2023-05-08T11:49:02.552Z,97001.16
2023-05-08T11:50:04.727Z,97017.72
2023-05-08T11:51:06.793Z,97011.28
2023-05-08T11:52:08.238Z,97008.66
2023-05-08T11:53:09.709Z,97005.16
2023-05-08T11:54:20.971Z,97007.50
2023-05-08T11:55:22.485Z,97010.19
2023-05-08T11:56:24.636Z,97005.47
2023-05-08T11:57:27.106Z,97006.00
2023-05-08T11:58:28.663Z,97001.47
2023-05-08T11:59:35.627Z,97007.41
2023-05-08T12:00:41.132Z,97005.72
2023-05-08T12:01:46.295Z,97009.03
2023-05-08T12:02:50.098Z,97007.16
2023-05-08T12:04:00.793Z,97009.41
2023-05-08T12:05:03.132Z,97006.75
2023-05-08T12:06:04.850Z,97010.16
2023-05-08T12:07:06.287Z,97009.09
2023-05-08T12:08:12.081Z,97012.56
2023-05-08T12:09:18.350Z,97010.91
2023-05-08T12:10:20.082Z,97015.19
2023-05-08T12:11:27.741Z,97012.09
2023-05-08T12:12:42.936Z,97008.16
2023-05-08T12:13:51.562Z,97004.94
2023-05-08T12:14:53.090Z,97007.25
2023-05-08T12:15:59.072Z,97011.09
2023-05-08T12:17:02.493Z,97005.34
2023-05-08T12:18:04.221Z,97010.78
2023-05-08T12:19:13.588Z,97012.28
2023-05-08T12:20:19.340Z,97017.72
2023-05-08T12:21:21.343Z,97011.66
2023-05-08T12:22:22.764Z,97012.78
2023-05-08T12:23:30.852Z,97009.66
2023-05-08T12:24:32.379Z,97011.97
2023-05-08T12:25:34.052Z,97011.34
2023-05-08T12:26:37.583Z,97015.50
2023-05-08T12:27:39.582Z,97005.50
2023-05-08T12:28:44.500Z,97010.28
2023-05-08T12:29:46.564Z,97006.47
2023-05-08T12:30:49.620Z,97010.91
2023-05-08T12:31:51.593Z,96989.41
2023-05-08T12:32:53.447Z,97011.94
2023-05-08T12:33:55.934Z,97017.16
2023-05-08T12:34:57.637Z,97014.91
2023-05-08T12:35:59.223Z,97013.97
2023-05-08T12:37:04.634Z,97002.78
2023-05-08T12:38:07.747Z,97007.03
2023-05-08T12:39:13.852Z,96999.31
2023-05-08T12:40:26.875Z,97005.22
2023-05-08T12:41:28.452Z,97005.47
2023-05-08T12:42:48.282Z,96991.13
2023-05-08T12:43:49.758Z,97006.09
2023-05-08T12:44:52.550Z,97003.09
2023-05-08T12:45:54.168Z,96998.75
2023-05-08T12:46:56.879Z,97005.03
2023-05-08T12:48:03.647Z,97004.59
2023-05-08T12:49:07.822Z,97006.84
2023-05-08T12:50:10.170Z,97013.84
2023-05-08T12:51:12.216Z,97016.97
2023-05-08T12:52:13.890Z,96998.81
2023-05-08T12:53:17.468Z,97011.34
2023-05-08T12:54:18.943Z,97008.69
2023-05-08T12:55:28.649Z,97006.88
2023-05-08T12:56:30.234Z,97012.47
2023-05-08T12:57:31.613Z,97003.31
2023-05-08T12:58:34.473Z,97013.44
2023-05-08T12:59:36.020Z,97002.75
2023-05-08T13:00:37.373Z,97012.50
2023-05-08T13:01:38.883Z,97006.75
2023-05-08T13:02:49.022Z,97003.13
2023-05-08T13:04:01.711Z,97006.75
2023-05-08T13:05:05.800Z,96963.44
2023-05-08T13:06:18.718Z,97005.28
2023-05-08T13:07:20.107Z,97007.94
2023-05-08T13:08:38.713Z,96993.69
2023-05-08T13:09:55.267Z,96995.44
2023-05-08T13:10:56.664Z,97008.09
2023-05-08T13:11:58.921Z,96994.34
2023-05-08T13:13:00.349Z,97004.56
2023-05-08T13:14:01.834Z,96997.44
2023-05-08T13:15:04.774Z,97005.00
2023-05-08T13:16:07.751Z,97006.53
2023-05-08T13:17:09.313Z,97002.50
2023-05-08T13:18:11.083Z,97005.03
2023-05-08T13:19:12.539Z,96998.16
2023-05-08T13:20:14.573Z,97006.00
2023-05-08T13:21:16.196Z,96998.16
2023-05-08T13:22:17.717Z,97003.44
2023-05-08T13:23:19.401Z,97000.94
2023-05-08T13:24:21.297Z,97003.34
2023-05-08T13:25:22.661Z,97002.81
2023-05-08T13:26:25.858Z,96998.28
2023-05-08T13:27:27.385Z,97003.22
2023-05-08T13:28:28.943Z,96991.50
2023-05-08T13:29:30.701Z,96992.94
2023-05-08T13:30:32.212Z,96999.97
2023-05-08T13:31:34.165Z,97000.19
2023-05-08T13:32:35.714Z,96995.28
2023-05-08T13:33:38.281Z,96995.00
2023-05-08T13:34:47.279Z,96995.72
2023-05-08T13:35:50.931Z,96981.97
2023-05-08T13:36:52.859Z,96980.44
2023-05-08T13:37:55.465Z,96983.75
2023-05-08T13:38:57.454Z,96986.19
2023-05-08T13:39:58.766Z,96981.66
2023-05-08T13:41:00.360Z,96981.97
2023-05-08T13:42:01.772Z,96978.81
2023-05-08T13:43:03.421Z,96978.03
2023-05-08T13:44:04.924Z,96976.16
2023-05-08T13:45:07.787Z,96982.09
2023-05-08T13:46:09.292Z,96976.44
2023-05-08T13:47:11.003Z,96977.09
2023-05-08T13:48:12.610Z,96980.63
2023-05-08T13:49:14.281Z,96974.16
2023-05-08T13:50:18.494Z,96971.63
2023-05-08T13:51:27.394Z,96976.75
2023-05-08T13:52:30.282Z,96974.72
2023-05-08T13:53:31.682Z,96972.50
2023-05-08T13:54:33.151Z,96978.53
2023-05-08T13:55:36.169Z,96970.22
2023-05-08T13:56:37.538Z,96968.28
2023-05-08T13:57:39.547Z,96979.09
2023-05-08T13:58:41.313Z,96980.03
2023-05-08T13:59:42.966Z,96975.94
2023-05-08T14:00:45.476Z,96972.91
2023-05-08T14:01:46.945Z,96974.91
2023-05-08T14:02:50.005Z,96972.16
2023-05-08T14:03:53.565Z,96974.47
2023-05-08T14:04:55.175Z,96971.94
2023-05-08T14:05:56.683Z,96977.06
2023-05-08T14:06:58.482Z,96980.78
2023-05-08T14:07:59.882Z,96985.09
2023-05-08T14:09:01.334Z,96980.47
2023-05-08T14:10:03.064Z,96975.69
2023-05-08T14:11:04.458Z,96979.09
2023-05-08T14:12:06.261Z,96980.69
2023-05-08T14:13:07.797Z,96977.72
2023-05-08T14:14:09.363Z,96972.34
2023-05-08T14:15:12.093Z,96974.97
2023-05-08T14:16:16.108Z,96968.97
2023-05-08T17:23:48.240Z,96990.56
2023-05-08T17:24:49.651Z,96998.94
2023-05-08T17:25:58.208Z,96995.81
2023-05-08T17:26:59.824Z,96992.59
2023-05-08T17:28:01.997Z,97003.38
2023-05-08T17:29:03.565Z,96999.09
2023-05-08T17:30:06.619Z,96990.50
2023-05-08T17:31:08.014Z,96997.19
2023-05-08T17:32:09.538Z,96992.72
2023-05-08T17:33:11.060Z,96987.09
2023-05-08T17:36:20.410Z,96993.38
